Time;durP1;ratioP1;P1;durP2;ratioP2;P2;SDS_P1;SDS_P2;PMS_P1;PMS_P2;Temp;Humidity;BMP_temperature;BMP_pressure;BME280_temperature;BME280_humidity;BME280_pressure;Samples;Min_cycle;Max_cycle;Signal;HPM_P1;HPM_P2
2022/11/13 00:02:09;;;;;;;15.00;9.80;;;;;;;;;;5119137;27;20654;-70
2022/11/13 00:04:42;;;;;;;15.50;9.10;;;;;;;;;;5117153;27;20502;-69
2022/11/13 00:07:09;;;;;;;14.67;9.63;;;;;;;;;;5118835;27;20786;-69
2022/11/13 00:09:37;;;;;;;15.00;9.47;;;;;;;;;;5118789;27;20462;-69
2022/11/13 00:12:06;;;;;;;12.00;9.73;;;;;;;;;;5119349;27;20503;-69
2022/11/13 00:14:34;;;;;;;11.30;7.77;;;;;;;;;;5118985;27;20458;-70
2022/11/13 00:17:04;;;;;;;15.33;8.23;;;;;;;;;;5119357;27;20449;-69
2022/11/13 00:19:31;;;;;;;12.50;7.80;;;;;;;;;;5118955;27;20465;-70
2022/11/13 00:21:59;;;;;;;13.90;8.67;;;;;;;;;;5118735;27;20482;-69
2022/11/13 00:24:26;;;;;;;13.07;8.90;;;;;;;;;;5118509;27;20450;-69
2022/11/13 00:26:54;;;;;;;10.33;7.90;;;;;;;;;;5118702;27;20545;-69
2022/11/13 00:29:24;;;;;;;11.43;8.10;;;;;;;;;;5117174;27;20925;-69
2022/11/13 00:31:51;;;;;;;14.00;7.90;;;;;;;;;;5118357;27;20438;-69
2022/11/13 00:34:18;;;;;;;10.33;8.27;;;;;;;;;;5118108;27;20462;-70
2022/11/13 00:36:46;;;;;;;10.97;8.83;;;;;;;;;;5117717;27;20451;-69
2022/11/13 00:39:16;;;;;;;14.20;8.97;;;;;;;;;;5118610;27;20482;-70
2022/11/13 00:41:43;;;;;;;14.03;7.70;;;;;;;;;;5119161;27;20587;-70
2022/11/13 00:44:11;;;;;;;10.97;8.07;;;;;;;;;;5119458;27;20435;-69
2022/11/13 00:46:38;;;;;;;12.23;8.00;;;;;;;;;;5119036;27;20461;-69
2022/11/13 00:49:05;;;;;;;12.13;8.43;;;;;;;;;;5119013;27;20732;-69
2022/11/13 00:51:32;;;;;;;12.20;8.83;;;;;;;;;;5117387;27;20604;-69
2022/11/13 00:53:59;;;;;;;13.20;8.50;;;;;;;;;;5119568;27;20446;-69
2022/11/13 00:56:26;;;;;;;15.60;9.60;;;;;;;;;;5119587;27;20451;-69
2022/11/13 00:58:53;;;;;;;12.80;8.97;;;;;;;;;;5120819;27;20451;-69
2022/11/13 01:01:21;;;;;;;11.27;8.20;;;;;;;;;;5121248;27;20495;-69
2022/11/13 01:03:48;;;;;;;11.80;8.27;;;;;;;;;;5120901;27;20545;-69
2022/11/13 01:06:20;;;;;;;14.93;8.20;;;;;;;;;;5118627;27;20461;-70
2022/11/13 01:08:50;;;;;;;14.67;9.00;;;;;;;;;;5118468;27;20847;-69
2022/11/13 01:11:22;;;;;;;13.80;8.43;;;;;;;;;;5106764;28;20494;-69
2022/11/13 01:13:50;;;;;;;13.60;8.93;;;;;;;;;;5098501;28;20448;-70
2022/11/13 01:16:22;;;;;;;12.50;8.30;;;;;;;;;;5097922;28;20467;-70
2022/11/13 01:19:07;;;;;;;16.10;8.20;;;;;;;;;;5098282;28;20856;-69
2022/11/13 01:21:34;;;;;;;15.37;8.80;;;;;;;;;;5102822;28;20470;-69
2022/11/13 01:24:01;;;;;;;14.03;8.93;;;;;;;;;;5102940;28;20542;-69
2022/11/13 01:26:30;;;;;;;13.67;8.80;;;;;;;;;;5098973;28;20444;-70
2022/11/13 01:29:01;;;;;;;16.93;8.90;;;;;;;;;;5100401;28;20887;-70
2022/11/13 01:31:29;;;;;;;10.80;8.70;;;;;;;;;;5099152;28;20903;-70
2022/11/13 01:33:59;;;;;;;9.10;8.20;;;;;;;;;;5099251;28;20509;-69
2022/11/13 01:36:28;;;;;;;13.47;9.10;;;;;;;;;;5098589;28;20488;-69
2022/11/13 01:39:08;;;;;;;12.30;7.70;;;;;;;;;;5099635;28;20462;-70
2022/11/13 01:41:43;;;;;;;14.47;8.93;;;;;;;;;;5097865;28;20490;-69
2022/11/13 01:44:16;;;;;;;11.73;8.30;;;;;;;;;;5098169;28;20866;-69
2022/11/13 01:46:44;;;;;;;13.30;8.70;;;;;;;;;;5098633;28;20471;-69
2022/11/13 01:49:23;;;;;;;13.73;7.97;;;;;;;;;;5099299;28;20435;-69
2022/11/13 01:51:51;;;;;;;15.30;7.90;;;;;;;;;;5097655;28;20538;-69
2022/11/13 01:54:27;;;;;;;9.50;6.50;;;;;;;;;;5097165;28;20444;-68
2022/11/13 01:56:57;;;;;;;11.40;8.77;;;;;;;;;;5097545;28;20471;-70
2022/11/13 01:59:26;;;;;;;14.60;7.53;;;;;;;;;;5104543;28;20726;-70
2022/11/13 02:01:54;;;;;;;12.50;9.00;;;;;;;;;;5117051;27;20521;-69
2022/11/13 02:04:29;;;;;;;17.67;8.47;;;;;;;;;;5116952;27;20454;-69
2022/11/13 02:07:00;;;;;;;14.30;9.30;;;;;;;;;;5117252;27;20453;-69
2022/11/13 02:09:30;;;;;;;15.00;8.70;;;;;;;;;;5118645;27;20537;-69
2022/11/13 02:11:57;;;;;;;10.60;8.27;;;;;;;;;;5117386;27;20812;-69
2022/11/13 02:14:26;;;;;;;13.33;9.60;;;;;;;;;;5117744;27;20458;-70
2022/11/13 02:17:00;;;;;;;14.30;8.37;;;;;;;;;;5116905;27;20451;-70
2022/11/13 02:19:34;;;;;;;9.17;7.67;;;;;;;;;;5116125;28;21369;-71
2022/11/13 02:22:07;;;;;;;13.77;8.47;;;;;;;;;;5116987;28;20482;-70
2022/11/13 02:24:38;;;;;;;11.63;7.27;;;;;;;;;;5116332;28;20729;-70
2022/11/13 02:27:07;;;;;;;11.43;8.50;;;;;;;;;;5116829;27;20450;-70
2022/11/13 02:29:33;;;;;;;12.80;8.00;;;;;;;;;;5117246;27;20450;-70
2022/11/13 02:32:01;;;;;;;11.17;7.90;;;;;;;;;;5117905;27;20450;-70
2022/11/13 02:34:28;;;;;;;12.20;7.37;;;;;;;;;;5117188;27;20463;-70
2022/11/13 02:36:55;;;;;;;20.77;7.93;;;;;;;;;;5116961;27;20469;-70
2022/11/13 02:39:22;;;;;;;11.67;7.20;;;;;;;;;;5117636;27;20470;-70
2022/11/13 02:41:53;;;;;;;12.13;8.83;;;;;;;;;;5117048;27;20596;-70
2022/11/13 02:44:24;;;;;;;12.53;7.87;;;;;;;;;;5114493;28;20467;-70
2022/11/13 02:46:51;;;;;;;10.67;7.80;;;;;;;;;;5116328;28;20479;-70
2022/11/13 02:49:18;;;;;;;12.50;7.90;;;;;;;;;;5116878;27;20812;-69
2022/11/13 02:51:45;;;;;;;11.23;8.07;;;;;;;;;;5116241;27;20442;-69
2022/11/13 02:54:12;;;;;;;10.33;8.47;;;;;;;;;;5117217;27;20450;-69
2022/11/13 02:56:39;;;;;;;15.70;8.43;;;;;;;;;;5117145;27;20446;-70
2022/11/13 02:59:07;;;;;;;11.30;8.60;;;;;;;;;;5117129;27;20453;-69
2022/11/13 03:01:34;;;;;;;12.77;9.37;;;;;;;;;;5116417;27;20483;-69
2022/11/13 03:04:01;;;;;;;9.87;7.20;;;;;;;;;;5116183;27;20544;-69
2022/11/13 03:06:31;;;;;;;12.03;7.83;;;;;;;;;;5116153;27;20438;-69
2022/11/13 03:08:58;;;;;;;12.53;7.83;;;;;;;;;;5116082;27;20582;-70
2022/11/13 03:11:25;;;;;;;11.43;7.90;;;;;;;;;;5115948;27;20462;-69
2022/11/13 03:13:55;;;;;;;9.30;7.33;;;;;;;;;;5114206;27;20446;-70
2022/11/13 03:16:23;;;;;;;10.30;7.60;;;;;;;;;;5115502;27;20492;-69
2022/11/13 03:18:50;;;;;;;11.43;6.60;;;;;;;;;;5115720;27;20881;-69
2022/11/13 03:21:17;;;;;;;9.83;6.17;;;;;;;;;;5115614;27;20451;-69
2022/11/13 03:23:47;;;;;;;10.10;7.43;;;;;;;;;;5117040;27;20443;-69
2022/11/13 03:26:18;;;;;;;12.07;8.37;;;;;;;;;;5115128;27;20457;-69
2022/11/13 03:28:51;;;;;;;7.93;6.77;;;;;;;;;;5116030;27;20576;-69
2022/11/13 03:31:18;;;;;;;9.20;7.50;;;;;;;;;;5119100;27;20880;-69
2022/11/13 03:33:46;;;;;;;12.50;9.20;;;;;;;;;;5118737;27;20507;-69
2022/11/13 03:36:13;;;;;;;10.07;7.20;;;;;;;;;;5120134;27;20454;-69
2022/11/13 03:38:40;;;;;;;11.13;7.67;;;;;;;;;;5119658;27;20454;-70
2022/11/13 03:41:07;;;;;;;11.00;7.87;;;;;;;;;;5119444;27;20564;-70
2022/11/13 03:43:35;;;;;;;11.13;7.73;;;;;;;;;;5118801;27;20715;-69
2022/11/13 03:46:02;;;;;;;16.60;8.50;;;;;;;;;;5119402;27;20443;-70
2022/11/13 03:48:29;;;;;;;13.63;7.33;;;;;;;;;;5119624;27;20494;-69
2022/11/13 03:50:57;;;;;;;10.63;7.23;;;;;;;;;;5119395;27;20431;-69
2022/11/13 03:53:24;;;;;;;9.20;6.40;;;;;;;;;;5119121;27;20554;-70
2022/11/13 03:55:51;;;;;;;11.00;8.10;;;;;;;;;;5119447;27;20457;-70
2022/11/13 03:58:19;;;;;;;19.30;9.90;;;;;;;;;;5119716;27;20457;-69
2022/11/13 04:00:47;;;;;;;12.73;8.20;;;;;;;;;;5119499;27;20462;-69
2022/11/13 04:03:14;;;;;;;12.30;8.17;;;;;;;;;;5098286;28;20908;-69
2022/11/13 04:05:42;;;;;;;10.67;7.00;;;;;;;;;;5103168;28;20453;-70
2022/11/13 04:08:10;;;;;;;10.40;7.27;;;;;;;;;;5118994;27;20447;-69
2022/11/13 04:10:37;;;;;;;13.37;8.47;;;;;;;;;;5118791;27;20447;-69
2022/11/13 04:13:07;;;;;;;10.27;6.97;;;;;;;;;;5118652;27;20787;-69
2022/11/13 04:15:34;;;;;;;10.47;7.80;;;;;;;;;;5119882;27;20538;-69
2022/11/13 04:18:01;;;;;;;13.23;8.43;;;;;;;;;;5118939;27;20969;-69
2022/11/13 04:20:28;;;;;;;13.17;7.60;;;;;;;;;;5119217;27;20490;-69
2022/11/13 04:22:56;;;;;;;13.83;7.60;;;;;;;;;;5118913;27;20487;-69
2022/11/13 04:25:24;;;;;;;12.40;7.87;;;;;;;;;;5118788;27;20458;-69
2022/11/13 04:27:51;;;;;;;10.17;7.67;;;;;;;;;;5119541;27;20520;-70
2022/11/13 04:30:18;;;;;;;11.97;7.47;;;;;;;;;;5119788;27;20462;-70
2022/11/13 04:32:45;;;;;;;13.27;7.70;;;;;;;;;;5119012;27;20529;-70
2022/11/13 04:35:12;;;;;;;11.57;7.80;;;;;;;;;;5119379;27;20468;-69
2022/11/13 04:37:39;;;;;;;13.23;8.40;;;;;;;;;;5118952;27;20455;-70
2022/11/13 04:40:07;;;;;;;8.67;6.70;;;;;;;;;;5119286;27;20869;-70
2022/11/13 04:42:49;;;;;;;10.97;7.80;;;;;;;;;;5120063;27;20630;-69
2022/11/13 04:45:17;;;;;;;11.60;8.27;;;;;;;;;;5118906;27;20457;-70
2022/11/13 04:47:44;;;;;;;11.73;7.60;;;;;;;;;;5118546;27;20553;-71
2022/11/13 04:50:11;;;;;;;16.33;7.63;;;;;;;;;;5118562;27;20494;-69
2022/11/13 04:52:38;;;;;;;13.43;8.50;;;;;;;;;;5118328;27;20461;-69
2022/11/13 04:55:05;;;;;;;10.67;7.43;;;;;;;;;;5117921;27;20461;-69
2022/11/13 04:57:32;;;;;;;12.80;8.17;;;;;;;;;;5118676;27;20537;-69
2022/11/13 05:00:00;;;;;;;11.70;7.30;;;;;;;;;;5118953;27;20454;-70
2022/11/13 05:02:27;;;;;;;13.73;8.60;;;;;;;;;;5118133;27;20746;-69
2022/11/13 05:04:54;;;;;;;14.70;8.97;;;;;;;;;;5118443;27;20996;-69
2022/11/13 05:07:21;;;;;;;11.40;7.07;;;;;;;;;;5119583;27;20439;-69
2022/11/13 05:09:52;;;;;;;12.40;7.93;;;;;;;;;;5118477;27;20445;-69
2022/11/13 05:12:19;;;;;;;14.00;8.70;;;;;;;;;;5118378;27;20619;-70
2022/11/13 05:14:46;;;;;;;10.60;6.53;;;;;;;;;;5118635;27;20934;-69
2022/11/13 05:17:14;;;;;;;10.17;7.47;;;;;;;;;;5117683;27;20450;-69
2022/11/13 05:19:41;;;;;;;10.60;7.67;;;;;;;;;;5118700;27;20462;-70
2022/11/13 05:22:08;;;;;;;15.03;9.17;;;;;;;;;;5118004;27;20478;-69
2022/11/13 05:24:35;;;;;;;11.73;7.60;;;;;;;;;;5118260;27;20892;-70
2022/11/13 05:27:02;;;;;;;12.13;7.90;;;;;;;;;;5118118;27;20853;-69
2022/11/13 05:29:29;;;;;;;10.17;6.70;;;;;;;;;;5118034;27;20538;-70
2022/11/13 05:31:56;;;;;;;9.90;6.40;;;;;;;;;;5117984;27;20530;-70
2022/11/13 05:34:24;;;;;;;13.00;7.10;;;;;;;;;;5118456;27;20455;-70
2022/11/13 05:36:54;;;;;;;14.10;8.00;;;;;;;;;;5118540;27;20856;-69
2022/11/13 05:39:21;;;;;;;13.07;7.10;;;;;;;;;;5118043;27;20545;-70
2022/11/13 05:41:48;;;;;;;12.10;8.07;;;;;;;;;;5118232;27;20486;-70
2022/11/13 05:44:15;;;;;;;10.83;8.27;;;;;;;;;;5117927;27;20545;-70
2022/11/13 05:46:42;;;;;;;11.67;8.27;;;;;;;;;;5117837;27;20446;-70
2022/11/13 05:49:10;;;;;;;15.50;8.47;;;;;;;;;;5117864;27;20537;-70
2022/11/13 05:51:41;;;;;;;11.93;7.70;;;;;;;;;;5107182;28;20557;-70
2022/11/13 05:54:07;;;;;;;13.03;8.10;;;;;;;;;;5118089;27;20497;-70
2022/11/13 05:56:36;;;;;;;12.77;9.30;;;;;;;;;;5117425;27;20530;-69
2022/11/13 05:59:04;;;;;;;12.43;7.50;;;;;;;;;;5118546;27;20928;-69
2022/11/13 06:01:32;;;;;;;13.33;8.37;;;;;;;;;;5117485;27;20504;-69
2022/11/13 06:03:59;;;;;;;10.60;7.53;;;;;;;;;;5118229;27;20550;-70
2022/11/13 06:06:27;;;;;;;9.90;6.63;;;;;;;;;;5117655;27;20459;-70
2022/11/13 06:08:59;;;;;;;12.47;6.93;;;;;;;;;;5117294;27;20447;-70
2022/11/13 06:11:27;;;;;;;14.70;8.50;;;;;;;;;;5117375;27;20532;-70
2022/11/13 06:13:56;;;;;;;12.90;8.60;;;;;;;;;;5117928;27;20447;-70
2022/11/13 06:16:26;;;;;;;9.80;6.77;;;;;;;;;;5117100;27;20482;-69
2022/11/13 06:18:56;;;;;;;13.20;8.40;;;;;;;;;;5096745;28;20868;-70
2022/11/13 06:21:24;;;;;;;14.50;9.57;;;;;;;;;;5097180;28;20542;-70
2022/11/13 06:23:51;;;;;;;10.77;7.40;;;;;;;;;;5095746;28;20462;-70
2022/11/13 06:26:20;;;;;;;11.80;8.43;;;;;;;;;;5096723;28;20505;-69
2022/11/13 06:29:01;;;;;;;11.80;8.20;;;;;;;;;;5113197;27;20829;-70
2022/11/13 06:31:35;;;;;;;13.33;9.13;;;;;;;;;;5113852;27;20600;-70
2022/11/13 06:34:03;;;;;;;12.40;7.93;;;;;;;;;;5117294;27;20864;-70
2022/11/13 06:36:31;;;;;;;13.10;8.03;;;;;;;;;;5116922;27;20485;-70
2022/11/13 06:38:59;;;;;;;11.13;8.80;;;;;;;;;;5117632;27;20715;-70
2022/11/13 06:41:28;;;;;;;13.47;8.47;;;;;;;;;;5117084;27;20460;-70
2022/11/13 06:43:55;;;;;;;10.47;7.40;;;;;;;;;;5117036;27;20775;-70
2022/11/13 06:46:23;;;;;;;12.67;9.10;;;;;;;;;;5116946;27;20461;-70
2022/11/13 06:48:50;;;;;;;13.00;8.60;;;;;;;;;;5115876;27;20437;-70
2022/11/13 06:51:20;;;;;;;9.30;7.07;;;;;;;;;;5114241;28;20535;-70
2022/11/13 06:53:50;;;;;;;15.30;8.97;;;;;;;;;;5114943;28;20458;-70
2022/11/13 06:56:17;;;;;;;13.37;8.00;;;;;;;;;;5115328;28;20461;-70
2022/11/13 06:58:45;;;;;;;13.77;8.53;;;;;;;;;;5114792;28;20457;-70
2022/11/13 07:01:13;;;;;;;14.50;8.27;;;;;;;;;;5115124;28;20894;-70
2022/11/13 07:03:43;;;;;;;13.27;9.30;;;;;;;;;;5115687;28;20509;-70
2022/11/13 07:06:12;;;;;;;14.83;9.20;;;;;;;;;;5118667;28;20456;-70
2022/11/13 07:08:43;;;;;;;11.87;7.90;;;;;;;;;;5118740;28;20459;-70
2022/11/13 07:11:11;;;;;;;13.87;8.70;;;;;;;;;;5118130;28;20435;-70
2022/11/13 07:13:38;;;;;;;11.43;7.80;;;;;;;;;;5118736;27;20945;-70
2022/11/13 07:16:07;;;;;;;16.27;9.90;;;;;;;;;;5118838;27;20541;-70
2022/11/13 07:18:34;;;;;;;16.50;9.80;;;;;;;;;;5120148;27;20775;-70
2022/11/13 07:21:04;;;;;;;12.70;7.90;;;;;;;;;;5119326;27;20486;-70
2022/11/13 07:23:31;;;;;;;16.20;9.80;;;;;;;;;;5118042;27;20927;-69
2022/11/13 07:25:59;;;;;;;13.97;8.93;;;;;;;;;;5116837;27;20972;-70
2022/11/13 07:28:26;;;;;;;13.63;8.30;;;;;;;;;;5119163;27;20464;-69
2022/11/13 07:30:53;;;;;;;11.63;8.53;;;;;;;;;;5117528;27;20454;-70
2022/11/13 07:33:21;;;;;;;15.73;9.73;;;;;;;;;;5119152;27;20529;-70
2022/11/13 07:35:54;;;;;;;18.37;9.90;;;;;;;;;;5119604;27;21014;-69
2022/11/13 07:38:21;;;;;;;18.70;10.50;;;;;;;;;;5118896;27;20544;-69
2022/11/13 07:40:48;;;;;;;18.93;10.00;;;;;;;;;;5118434;27;20466;-70
2022/11/13 07:43:15;;;;;;;16.23;10.67;;;;;;;;;;5118845;27;20546;-69
2022/11/13 07:45:42;;;;;;;24.43;11.67;;;;;;;;;;5117914;27;20477;-69
2022/11/13 07:48:10;;;;;;;18.70;11.30;;;;;;;;;;5118580;27;20478;-69
2022/11/13 07:50:41;;;;;;;21.10;11.20;;;;;;;;;;5117329;27;20574;-69
2022/11/13 07:53:08;;;;;;;24.00;11.43;;;;;;;;;;5118422;27;20466;-70
2022/11/13 07:55:36;;;;;;;23.43;12.70;;;;;;;;;;5105717;27;20819;-69
2022/11/13 07:58:03;;;;;;;20.00;12.03;;;;;;;;;;5109996;28;20549;-70
2022/11/13 08:00:31;;;;;;;21.57;11.23;;;;;;;;;;5106837;27;20505;-69
2022/11/13 08:03:00;;;;;;;24.23;11.10;;;;;;;;;;5105155;27;20498;-70
2022/11/13 08:05:27;;;;;;;21.10;10.87;;;;;;;;;;5116990;27;20467;-70
2022/11/13 08:07:55;;;;;;;19.00;10.90;;;;;;;;;;5118234;27;20470;-70
2022/11/13 08:10:22;;;;;;;18.13;12.23;;;;;;;;;;5117737;27;20534;-70
2022/11/13 08:12:49;;;;;;;22.83;10.70;;;;;;;;;;5116976;27;20534;-70
2022/11/13 08:15:16;;;;;;;18.03;12.13;;;;;;;;;;5118056;27;20462;-70
2022/11/13 08:17:43;;;;;;;20.33;9.23;;;;;;;;;;5118461;27;20450;-70
2022/11/13 08:20:11;;;;;;;20.23;11.63;;;;;;;;;;5116839;27;20454;-70
2022/11/13 08:22:38;;;;;;;27.00;12.63;;;;;;;;;;5118170;27;20513;-70
2022/11/13 08:25:06;;;;;;;19.67;10.60;;;;;;;;;;5118110;27;20447;-70
2022/11/13 08:27:33;;;;;;;22.00;11.10;;;;;;;;;;5119001;27;20817;-70
2022/11/13 08:30:00;;;;;;;18.07;11.40;;;;;;;;;;5115363;27;20459;-70
2022/11/13 08:32:30;;;;;;;20.97;11.77;;;;;;;;;;5117239;27;20459;-69
2022/11/13 08:34:57;;;;;;;17.23;9.97;;;;;;;;;;5118345;27;20451;-69
2022/11/13 08:37:24;;;;;;;20.07;11.57;;;;;;;;;;5117646;27;20455;-69
2022/11/13 08:39:51;;;;;;;21.20;11.70;;;;;;;;;;5116727;27;20827;-69
2022/11/13 08:42:18;;;;;;;19.80;10.30;;;;;;;;;;5117439;27;20522;-69
2022/11/13 08:44:46;;;;;;;22.33;11.43;;;;;;;;;;5117585;27;20455;-69
2022/11/13 08:47:15;;;;;;;23.13;11.30;;;;;;;;;;5117951;27;20442;-70
2022/11/13 08:49:42;;;;;;;21.60;11.23;;;;;;;;;;5115882;27;20468;-70
2022/11/13 08:52:11;;;;;;;25.17;11.87;;;;;;;;;;5116912;27;20446;-70
2022/11/13 08:54:39;;;;;;;15.00;9.70;;;;;;;;;;5117529;27;20511;-69
2022/11/13 08:57:06;;;;;;;18.43;10.20;;;;;;;;;;5116887;27;20816;-70
2022/11/13 08:59:43;;;;;;;18.53;10.30;;;;;;;;;;5114923;27;20470;-70
2022/11/13 09:02:11;;;;;;;22.57;11.70;;;;;;;;;;5114279;27;20569;-69
2022/11/13 09:04:38;;;;;;;25.03;12.03;;;;;;;;;;5117111;27;20451;-70
2022/11/13 09:07:05;;;;;;;20.30;11.20;;;;;;;;;;5116654;27;20455;-70
2022/11/13 09:09:33;;;;;;;22.30;11.00;;;;;;;;;;5117161;27;20454;-70
2022/11/13 09:12:00;;;;;;;16.13;10.60;;;;;;;;;;5116723;27;20461;-70
2022/11/13 09:14:29;;;;;;;21.30;10.70;;;;;;;;;;5117433;27;20583;-70
2022/11/13 09:16:57;;;;;;;25.07;11.17;;;;;;;;;;5116975;27;20450;-70
2022/11/13 09:19:24;;;;;;;23.80;12.33;;;;;;;;;;5115028;27;20523;-70
2022/11/13 09:21:52;;;;;;;19.57;12.00;;;;;;;;;;5116692;27;20437;-70
2022/11/13 09:24:19;;;;;;;20.90;11.30;;;;;;;;;;5116231;27;20474;-70
2022/11/13 09:26:46;;;;;;;17.50;10.43;;;;;;;;;;5114680;27;20537;-70
2022/11/13 09:29:13;;;;;;;16.07;10.97;;;;;;;;;;5115481;27;20918;-69
2022/11/13 09:31:44;;;;;;;18.23;10.00;;;;;;;;;;5114016;27;20466;-70
2022/11/13 09:34:12;;;;;;;16.90;9.97;;;;;;;;;;5115848;27;20470;-70
2022/11/13 09:36:39;;;;;;;17.40;10.53;;;;;;;;;;5114402;27;20854;-69
2022/11/13 09:39:06;;;;;;;20.70;11.13;;;;;;;;;;5115667;27;20458;-69
2022/11/13 09:41:38;;;;;;;22.37;9.87;;;;;;;;;;5114540;27;20857;-70
2022/11/13 09:44:06;;;;;;;20.20;10.77;;;;;;;;;;5115048;27;20905;-70
2022/11/13 09:46:36;;;;;;;18.87;10.90;;;;;;;;;;5115486;27;20443;-70
2022/11/13 09:49:04;;;;;;;19.80;9.93;;;;;;;;;;5109784;28;20471;-69
2022/11/13 09:51:38;;;;;;;19.10;11.23;;;;;;;;;;5094872;28;20510;-70
2022/11/13 09:54:06;;;;;;;21.30;11.03;;;;;;;;;;5108351;27;20455;-70
2022/11/13 09:56:34;;;;;;;17.10;10.80;;;;;;;;;;5117274;27;20447;-70
2022/11/13 09:59:05;;;;;;;16.17;10.07;;;;;;;;;;5116800;27;20450;-69
2022/11/13 10:01:40;;;;;;;15.40;9.23;;;;;;;;;;5115394;27;20599;-70
2022/11/13 10:04:09;;;;;;;19.13;9.70;;;;;;;;;;5113608;27;20542;-70
2022/11/13 10:06:43;;;;;;;15.13;9.73;;;;;;;;;;5115391;27;20561;-71
2022/11/13 10:09:16;;;;;;;14.40;8.80;;;;;;;;;;5110200;28;20462;-70
2022/11/13 10:11:45;;;;;;;14.90;9.90;;;;;;;;;;5115584;28;20869;-71
2022/11/13 10:14:18;;;;;;;15.63;10.37;;;;;;;;;;5115458;27;20447;-70
2022/11/13 10:16:49;;;;;;;14.67;10.50;;;;;;;;;;5114447;27;20458;-69
2022/11/13 10:19:22;;;;;;;16.60;9.07;;;;;;;;;;5114228;27;20450;-69
2022/11/13 10:21:55;;;;;;;23.23;11.67;;;;;;;;;;5108022;27;20517;-69
2022/11/13 10:24:25;;;;;;;19.07;11.17;;;;;;;;;;5099024;28;20553;-69
2022/11/13 10:26:53;;;;;;;18.93;11.13;;;;;;;;;;5113578;28;20847;-70
2022/11/13 10:29:21;;;;;;;21.53;10.80;;;;;;;;;;5112863;28;20464;-69
2022/11/13 10:31:49;;;;;;;20.17;9.73;;;;;;;;;;5113325;27;20543;-70
2022/11/13 10:34:18;;;;;;;20.93;12.43;;;;;;;;;;5114494;28;20467;-70
2022/11/13 10:36:55;;;;;;;21.83;10.47;;;;;;;;;;5114015;27;20447;-70
2022/11/13 10:39:22;;;;;;;22.13;11.70;;;;;;;;;;5113703;27;20913;-70
2022/11/13 10:41:50;;;;;;;19.37;11.20;;;;;;;;;;5098351;28;20439;-70
2022/11/13 10:44:35;;;;;;;21.00;12.80;;;;;;;;;;5115624;27;20516;-70
2022/11/13 10:47:06;;;;;;;25.70;12.17;;;;;;;;;;5118078;27;20555;-70
2022/11/13 10:49:33;;;;;;;24.50;12.87;;;;;;;;;;5117773;27;20457;-70
2022/11/13 10:52:01;;;;;;;20.87;12.90;;;;;;;;;;5106447;28;20530;-70
2022/11/13 10:54:34;;;;;;;24.97;12.20;;;;;;;;;;5114977;27;20458;-70
2022/11/13 10:57:05;;;;;;;24.53;12.57;;;;;;;;;;5112654;27;20550;-71
2022/11/13 10:59:41;;;;;;;18.77;10.93;;;;;;;;;;5101450;28;20607;-69
2022/11/13 11:02:16;;;;;;;17.40;11.67;;;;;;;;;;5115578;27;20560;-69
2022/11/13 11:04:44;;;;;;;18.30;10.60;;;;;;;;;;5117593;27;20442;-70
2022/11/13 11:07:19;;;;;;;18.33;10.60;;;;;;;;;;5117522;27;20450;-70
2022/11/13 11:09:55;;;;;;;19.50;11.50;;;;;;;;;;5115832;27;20439;-70
2022/11/13 11:12:23;;;;;;;20.37;12.07;;;;;;;;;;5116919;27;20465;-70
2022/11/13 11:15:01;;;;;;;19.37;11.37;;;;;;;;;;5113654;28;20468;-70
2022/11/13 11:17:34;;;;;;;17.20;10.10;;;;;;;;;;5113423;28;20458;-70
2022/11/13 11:20:06;;;;;;;18.43;11.77;;;;;;;;;;5117513;27;20462;-70
2022/11/13 11:22:38;;;;;;;25.53;12.30;;;;;;;;;;5115043;27;20547;-69
2022/11/13 11:25:13;;;;;;;19.67;12.67;;;;;;;;;;5115714;28;20465;-71
2022/11/13 11:27:47;;;;;;;27.00;12.60;;;;;;;;;;5118368;27;20472;-70
2022/11/13 11:30:18;;;;;;;23.93;13.63;;;;;;;;;;5117638;27;20546;-69
2022/11/13 11:32:58;;;;;;;21.00;13.03;;;;;;;;;;5119184;27;20491;-70
2022/11/13 11:35:33;;;;;;;24.30;13.27;;;;;;;;;;5119660;27;20442;-70
2022/11/13 11:38:08;;;;;;;24.23;11.80;;;;;;;;;;5117523;27;20458;-70
2022/11/13 11:40:39;;;;;;;20.23;11.90;;;;;;;;;;5116170;27;20446;-70
2022/11/13 11:43:12;;;;;;;23.60;12.10;;;;;;;;;;5117335;27;20486;-70
2022/11/13 11:48:27;;;;;;;23.93;13.00;;;;;;;;;;5109012;28;20469;-70
2022/11/13 11:50:57;;;;;;;24.57;12.90;;;;;;;;;;5115366;28;20507;-70
2022/11/13 11:53:34;;;;;;;20.80;14.17;;;;;;;;;;5116548;28;20470;-70
2022/11/13 11:56:09;;;;;;;20.30;12.33;;;;;;;;;;5110489;27;20494;-69
2022/11/13 11:58:45;;;;;;;22.20;14.13;;;;;;;;;;5116870;27;20455;-71
2022/11/13 12:01:28;;;;;;;24.40;14.13;;;;;;;;;;5106714;27;20458;-70
2022/11/13 12:04:10;;;;;;;24.73;12.77;;;;;;;;;;5109329;27;20749;-69
2022/11/13 12:06:50;;;;;;;20.10;12.40;;;;;;;;;;5115426;27;20462;-69
2022/11/13 12:09:24;;;;;;;21.37;10.63;;;;;;;;;;5097784;28;20459;-72
2022/11/13 12:11:58;;;;;;;17.40;11.47;;;;;;;;;;5115024;27;21031;-71
2022/11/13 12:14:30;;;;;;;16.83;10.10;;;;;;;;;;5117094;27;20454;-69
2022/11/13 12:17:16;;;;;;;15.73;10.07;;;;;;;;;;5116299;27;20524;-70
2022/11/13 12:19:54;;;;;;;17.30;10.57;;;;;;;;;;5115935;27;20470;-71
2022/11/13 12:22:35;;;;;;;17.87;11.07;;;;;;;;;;5116027;27;20543;-71
2022/11/13 12:25:16;;;;;;;14.80;9.50;;;;;;;;;;5099591;28;20884;-69
2022/11/13 12:30:32;;;;;;;17.03;11.07;;;;;;;;;;5081592;28;20519;-70
2022/11/13 12:35:52;;;;;;;15.10;9.73;;;;;;;;;;5109366;28;20572;-70
2022/11/13 12:38:42;;;;;;;16.60;10.07;;;;;;;;;;5114095;27;20493;-70
2022/11/13 12:41:44;;;;;;;16.07;10.27;;;;;;;;;;5112772;27;20921;-70
2022/11/13 12:44:23;;;;;;;13.00;8.43;;;;;;;;;;5116994;27;20473;-70
2022/11/13 12:47:03;;;;;;;15.00;10.63;;;;;;;;;;5105774;27;20458;-70
2022/11/13 12:49:41;;;;;;;15.37;9.13;;;;;;;;;;5115047;27;20446;-69
2022/11/13 12:52:21;;;;;;;14.67;9.43;;;;;;;;;;5116369;27;20553;-69
2022/11/13 12:54:54;;;;;;;14.13;9.40;;;;;;;;;;5115411;27;20458;-70
2022/11/13 12:57:31;;;;;;;14.43;10.20;;;;;;;;;;5116205;27;20466;-70
2022/11/13 13:00:15;;;;;;;17.20;10.30;;;;;;;;;;5116262;27;20450;-70
2022/11/13 13:03:05;;;;;;;17.60;10.37;;;;;;;;;;5114540;27;20491;-69
2022/11/13 13:05:52;;;;;;;20.53;11.93;;;;;;;;;;5115259;28;20443;-69
2022/11/13 13:08:28;;;;;;;16.23;10.97;;;;;;;;;;5116505;27;20490;-70
2022/11/13 13:13:56;;;;;;;21.80;12.20;;;;;;;;;;5112947;28;20470;-70
2022/11/13 13:16:33;;;;;;;23.87;12.23;;;;;;;;;;5113929;27;20472;-70
2022/11/13 13:19:29;;;;;;;20.40;12.10;;;;;;;;;;4956832;28;3627397;-70
2022/11/13 13:22:01;;;;;;;18.97;11.20;;;;;;;;;;5079233;28;20513;-70
2022/11/13 13:24:35;;;;;;;23.53;14.03;;;;;;;;;;5087175;28;20510;-70
2022/11/13 13:27:03;;;;;;;20.97;14.33;;;;;;;;;;5087152;28;20451;-69
2022/11/13 13:29:37;;;;;;;24.00;13.43;;;;;;;;;;5090071;28;20455;-70
2022/11/13 13:32:10;;;;;;;19.07;12.73;;;;;;;;;;5074298;28;21014;-69
2022/11/13 13:34:41;;;;;;;23.00;13.63;;;;;;;;;;5077343;28;20467;-69
2022/11/13 13:37:23;;;;;;;25.40;13.77;;;;;;;;;;5075064;28;20459;-69
2022/11/13 13:40:01;;;;;;;26.87;13.50;;;;;;;;;;5074186;28;20545;-70
2022/11/13 13:42:41;;;;;;;23.40;14.30;;;;;;;;;;5078723;28;21127;-70
2022/11/13 13:45:21;;;;;;;21.00;13.00;;;;;;;;;;5084533;28;20918;-69
2022/11/13 13:47:56;;;;;;;24.03;14.80;;;;;;;;;;5080644;28;20513;-70
2022/11/13 13:50:37;;;;;;;23.30;13.83;;;;;;;;;;5083317;28;20847;-69
2022/11/13 13:53:05;;;;;;;26.40;13.57;;;;;;;;;;5077402;28;20455;-69
2022/11/13 13:55:36;;;;;;;22.97;14.10;;;;;;;;;;5085873;28;20458;-68
2022/11/13 13:58:11;;;;;;;23.30;13.50;;;;;;;;;;5092706;28;20723;-69
2022/11/13 14:00:58;;;;;;;26.60;15.13;;;;;;;;;;5092363;28;20473;-69
2022/11/13 14:03:39;;;;;;;24.77;13.40;;;;;;;;;;5078605;28;20484;-70
2022/11/13 14:06:25;;;;;;;22.97;13.57;;;;;;;;;;5085626;28;20564;-69
2022/11/13 14:08:58;;;;;;;25.73;14.47;;;;;;;;;;5078525;28;20457;-69
2022/11/13 14:11:28;;;;;;;21.23;13.37;;;;;;;;;;5074301;28;21101;-69
2022/11/13 14:14:07;;;;;;;27.53;13.40;;;;;;;;;;5091749;28;20436;-69
2022/11/13 14:16:46;;;;;;;21.47;13.60;;;;;;;;;;5094191;28;20447;-70
2022/11/13 14:19:16;;;;;;;25.33;13.77;;;;;;;;;;5094554;28;20443;-70
2022/11/13 14:21:45;;;;;;;24.97;11.73;;;;;;;;;;5093988;28;21018;-70
2022/11/13 14:24:18;;;;;;;22.20;14.10;;;;;;;;;;5091488;28;20476;-70
2022/11/13 14:26:49;;;;;;;24.43;14.03;;;;;;;;;;5074286;28;20453;-69
2022/11/13 14:29:24;;;;;;;25.90;14.23;;;;;;;;;;5074299;28;20444;-69
2022/11/13 14:31:53;;;;;;;28.50;14.03;;;;;;;;;;5073274;28;20483;-69
2022/11/13 14:34:23;;;;;;;25.50;14.63;;;;;;;;;;5080293;28;21612;-70
2022/11/13 14:36:52;;;;;;;24.43;14.60;;;;;;;;;;5087035;28;20558;-69
2022/11/13 14:39:29;;;;;;;22.27;13.33;;;;;;;;;;5088405;28;20487;-70
2022/11/13 14:42:01;;;;;;;20.20;13.67;;;;;;;;;;5073483;28;20826;-69
2022/11/13 14:44:29;;;;;;;23.90;13.40;;;;;;;;;;5073482;28;20484;-69
2022/11/13 14:47:03;;;;;;;21.03;14.20;;;;;;;;;;5073241;28;20456;-69
2022/11/13 14:49:31;;;;;;;21.53;13.47;;;;;;;;;;5073711;28;21069;-70
2022/11/13 14:52:00;;;;;;;25.07;13.50;;;;;;;;;;5085365;28;20599;-69
2022/11/13 14:54:29;;;;;;;22.73;13.83;;;;;;;;;;5074182;28;20709;-69
2022/11/13 14:57:10;;;;;;;23.70;13.30;;;;;;;;;;5074142;28;20783;-70